Time;durP1;ratioP1;P1;durP2;ratioP2;P2;SDS_P1;SDS_P2;PMS_P1;PMS_P2;Temp;Humidity;BMP_temperature;BMP_pressure;BME280_temperature;BME280_humidity;BME280_pressure;Samples;Min_cycle;Max_cycle;Signal;HPM_P1;HPM_P2
2023/11/12 00:00:29;;;;;;;25.90;15.30;;;;;;;10.11;88.95;99209.52;107604;1256;110521;-62
2023/11/12 00:03:18;;;;;;;34.60;16.10;;;;;;;10.09;89.08;99206.37;107587;1254;110819;-63
2023/11/12 00:05:50;;;;;;;34.10;16.70;;;;;;;10.07;89.10;99206.88;107491;1254;108687;-61
2023/11/12 00:08:18;;;;;;;32.40;15.40;;;;;;;10.05;89.21;99210.14;107531;1254;96478;-62
2023/11/12 00:10:47;;;;;;;30.70;15.80;;;;;;;9.98;88.91;99213.29;107578;1255;97078;-61
2023/11/12 00:13:16;;;;;;;30.20;15.90;;;;;;;9.82;89.52;99212.70;107663;1256;109726;-62
2023/11/12 00:15:44;;;;;;;28.90;16.70;;;;;;;9.77;90.43;99217.49;107622;1255;109831;-63
2023/11/12 00:18:13;;;;;;;27.80;16.00;;;;;;;9.71;90.93;99216.23;107581;1256;107671;-62
2023/11/12 00:20:41;;;;;;;35.70;17.50;;;;;;;9.54;91.27;99222.25;107531;1255;96511;-62
2023/11/12 00:23:09;;;;;;;31.40;16.70;;;;;;;9.38;91.86;99218.15;107610;1256;96396;-62
2023/11/12 00:25:37;;;;;;;28.20;16.10;;;;;;;9.29;92.01;99217.66;107614;1251;110670;-62
2023/11/12 00:28:06;;;;;;;32.10;16.80;;;;;;;9.23;93.00;99213.52;107630;1251;110154;-63
2023/11/12 00:30:34;;;;;;;32.40;17.50;;;;;;;9.21;93.67;99209.85;107590;1256;107628;-61
2023/11/12 00:33:03;;;;;;;33.60;17.60;;;;;;;9.23;94.44;99209.36;107583;1251;96588;-63
2023/11/12 00:35:31;;;;;;;34.10;19.50;;;;;;;9.35;95.32;99204.52;107617;1251;96419;-62
2023/11/12 00:38:01;;;;;;;31.90;19.00;;;;;;;9.46;95.89;99202.98;107520;1251;110724;-62
2023/11/12 00:40:32;;;;;;;31.60;17.80;;;;;;;9.55;96.02;99200.27;107575;1251;108829;-62
2023/11/12 00:43:01;;;;;;;35.50;20.00;;;;;;;9.60;95.73;99198.52;107553;1251;107146;-62
2023/11/12 00:45:31;;;;;;;41.10;20.00;;;;;;;9.59;94.94;99196.74;107607;1256;96613;-62
2023/11/12 00:48:00;;;;;;;32.50;18.90;;;;;;;9.59;94.46;99194.27;107485;1254;98268;-63
2023/11/12 00:50:28;;;;;;;34.90;19.50;;;;;;;9.59;94.48;99187.11;107621;1251;109536;-62
2023/11/12 00:52:57;;;;;;;36.50;19.10;;;;;;;9.59;94.58;99186.08;107563;1254;109929;-62
2023/11/12 00:55:25;;;;;;;33.10;18.70;;;;;;;9.56;94.31;99182.45;107574;1254;107662;-63
2023/11/12 00:57:53;;;;;;;31.10;19.10;;;;;;;9.49;94.15;99179.98;107601;1256;96547;-63
2023/11/12 01:00:22;;;;;;;36.30;20.00;;;;;;;9.45;94.40;99177.59;107589;1251;97219;-62
2023/11/12 01:02:50;;;;;;;34.50;18.60;;;;;;;9.39;95.09;99174.77;107613;1255;110105;-63
2023/11/12 01:05:19;;;;;;;39.60;18.60;;;;;;;9.35;95.34;99173.84;107593;1257;109054;-63
2023/11/12 01:07:47;;;;;;;42.60;19.40;;;;;;;9.30;95.42;99170.95;107478;1256;108670;-62
2023/11/12 01:10:16;;;;;;;39.70;19.70;;;;;;;9.28;95.66;99173.13;107584;1253;96465;-65
2023/11/12 01:12:45;;;;;;;39.60;19.10;;;;;;;9.28;95.71;99169.95;107636;1256;96563;-62
2023/11/12 01:15:17;;;;;;;38.70;20.10;;;;;;;9.26;95.94;99169.04;107421;1254;111022;-63
2023/11/12 01:17:46;;;;;;;33.90;18.80;;;;;;;9.19;96.27;99165.98;107466;1251;108819;-63
2023/11/12 01:20:15;;;;;;;35.80;19.10;;;;;;;9.06;95.93;99162.98;107543;1256;108533;-63
2023/11/12 01:22:45;;;;;;;34.70;18.30;;;;;;;8.94;96.18;99157.79;107579;1253;96511;-63
2023/11/12 01:25:14;;;;;;;36.10;18.20;;;;;;;8.84;96.47;99153.66;107624;1254;96494;-63
2023/11/12 01:27:43;;;;;;;33.50;18.70;;;;;;;8.76;96.80;99151.11;107552;1254;111590;-63
2023/11/12 01:30:11;;;;;;;40.80;19.60;;;;;;;8.71;97.15;99152.60;107573;1253;109864;-62
2023/11/12 01:32:40;;;;;;;33.60;18.40;;;;;;;8.67;97.20;99158.12;107477;1251;107728;-60
2023/11/12 01:35:09;;;;;;;39.60;17.90;;;;;;;8.67;97.21;99156.52;107518;1254;96596;-61
2023/11/12 01:37:38;;;;;;;38.80;20.50;;;;;;;8.67;97.45;99158.82;107626;1251;96460;-62
2023/11/12 01:40:08;;;;;;;37.50;19.60;;;;;;;8.68;97.52;99160.71;107617;1256;110390;-61
2023/11/12 01:42:37;;;;;;;34.70;18.80;;;;;;;8.74;98.00;99163.80;107541;1256;110486;-63
2023/11/12 01:45:06;;;;;;;34.50;18.50;;;;;;;8.74;97.92;99168.98;107500;1251;108577;-63
2023/11/12 01:47:35;;;;;;;37.60;19.60;;;;;;;8.74;98.14;99168.66;107640;1251;96408;-62
2023/11/12 01:50:09;;;;;;;33.50;19.90;;;;;;;8.76;98.25;99169.34;107650;1251;97093;-63
2023/11/12 01:52:37;;;;;;;43.80;19.60;;;;;;;8.77;98.39;99166.36;107617;1254;109485;-62
2023/11/12 01:55:09;;;;;;;40.20;19.50;;;;;;;8.76;98.20;99165.92;107615;1253;108781;-61
2023/11/12 01:57:39;;;;;;;38.20;20.40;;;;;;;8.74;97.84;99160.27;107634;1254;106696;-64
2023/11/12 02:00:11;;;;;;;32.30;18.30;;;;;;;8.71;97.81;99162.75;107457;1254;96527;-63
2023/11/12 02:02:40;;;;;;;33.00;17.90;;;;;;;8.68;97.49;99167.58;107552;1254;96333;-62
2023/11/12 02:05:08;;;;;;;40.90;19.80;;;;;;;8.66;97.37;99172.05;107634;1254;110750;-63
2023/11/12 02:07:42;;;;;;;40.20;20.20;;;;;;;8.64;97.85;99171.21;107505;1251;110628;-63
2023/11/12 02:10:16;;;;;;;36.70;18.10;;;;;;;8.62;99.02;99181.34;107432;1254;108096;-61
2023/11/12 02:12:46;;;;;;;29.50;17.30;;;;;;;8.65;99.93;99189.52;107647;1256;96561;-62
2023/11/12 02:15:17;;;;;;;32.90;17.90;;;;;;;8.63;99.52;99189.38;107521;1251;96584;-62
2023/11/12 02:17:49;;;;;;;;;;;;;;;8.60;99.81;99195.84;107521;1251;110653;-62
2023/11/12 02:20:17;;;;;;;27.90;15.90;;;;;;;8.60;99.29;99200.25;107502;1251;109098;-62
2023/11/12 02:22:45;;;;;;;26.20;15.20;;;;;;;8.49;98.65;99203.69;107619;1251;108387;-61
2023/11/12 02:25:13;;;;;;;27.30;14.90;;;;;;;8.43;98.68;99206.19;107470;1251;96584;-62
2023/11/12 02:27:44;;;;;;;29.10;16.10;;;;;;;8.34;97.87;99207.11;107582;1251;96351;-62
2023/11/12 02:30:14;;;;;;;25.60;14.50;;;;;;;8.25;97.72;99210.39;107621;1254;110686;-62
2023/11/12 02:32:42;;;;;;;26.80;16.00;;;;;;;8.16;97.66;99210.75;107599;1255;107720;-61
2023/11/12 02:35:12;;;;;;;31.10;15.00;;;;;;;8.06;97.45;99216.84;107352;1254;107666;-62
2023/11/12 02:37:41;;;;;;;31.70;16.30;;;;;;;8.04;98.19;99218.14;107484;1254;96409;-63
2023/11/12 02:40:12;;;;;;;27.90;15.70;;;;;;;8.04;98.20;99221.33;107494;1251;96387;-63
2023/11/12 02:42:40;;;;;;;30.30;16.70;;;;;;;8.00;98.03;99227.76;107627;1251;110203;-61
2023/11/12 02:45:10;;;;;;;32.30;15.80;;;;;;;7.98;98.11;99231.05;107461;1255;108686;-62
2023/11/12 02:47:43;;;;;;;30.50;17.30;;;;;;;8.02;98.38;99237.42;107598;1251;108631;-63
2023/11/12 02:50:32;;;;;;;33.40;16.80;;;;;;;7.96;98.05;99240.27;107611;1251;96485;-62
2023/11/12 02:53:05;;;;;;;32.10;16.90;;;;;;;7.96;98.75;99243.90;107607;1251;96418;-63
2023/11/12 02:55:35;;;;;;;36.90;17.00;;;;;;;7.94;98.71;99247.52;107628;1255;110879;-62
2023/11/12 02:58:04;;;;;;;31.80;16.90;;;;;;;7.90;98.67;99252.73;107450;1251;109988;-62
2023/11/12 03:00:33;;;;;;;26.00;15.80;;;;;;;7.84;98.84;99252.60;107499;1251;106832;-63
2023/11/12 03:03:02;;;;;;;28.20;15.70;;;;;;;7.79;99.35;99258.60;107455;1251;96503;-62
2023/11/12 03:05:31;;;;;;;29.10;16.80;;;;;;;7.80;99.59;99264.59;107559;1251;96406;-62
2023/11/12 03:08:00;;;;;;;23.20;14.40;;;;;;;7.82;99.93;99265.63;107534;1255;110260;-62
2023/11/12 03:10:28;;;;;;;21.90;14.00;;;;;;;7.80;99.68;99265.80;107593;1253;109372;-64
2023/11/12 03:12:57;;;;;;;28.00;15.20;;;;;;;7.83;99.91;99271.02;107620;1253;108544;-65
2023/11/12 03:15:25;;;;;;;22.00;11.70;;;;;;;7.90;100.00;99272.56;107646;1253;96601;-62
2023/11/12 03:17:54;;;;;;;21.90;12.90;;;;;;;7.88;99.38;99278.05;107522;1251;96409;-63
2023/11/12 03:20:23;;;;;;;20.70;12.50;;;;;;;7.86;99.17;99284.19;107438;1251;109657;-61
2023/11/12 03:22:53;;;;;;;18.70;11.70;;;;;;;7.81;98.77;99288.09;107622;1251;109754;-63
2023/11/12 03:25:21;;;;;;;25.20;12.20;;;;;;;7.75;98.84;99290.45;107486;1251;107556;-61
2023/11/12 03:27:50;;;;;;;19.50;11.00;;;;;;;7.68;98.28;99293.64;107477;1251;96475;-62
2023/11/12 03:30:19;;;;;;;23.40;12.40;;;;;;;7.64;98.51;99292.77;107484;1251;97099;-62
2023/11/12 03:32:48;;;;;;;23.90;12.00;;;;;;;7.68;98.98;99293.25;107478;1251;110763;-63
2023/11/12 03:35:17;;;;;;;24.50;11.30;;;;;;;7.73;99.21;99293.83;107464;1251;109431;-61
2023/11/12 03:37:46;;;;;;;25.70;12.30;;;;;;;7.71;98.57;99300.30;107625;1254;107571;-62
2023/11/12 03:40:14;;;;;;;21.60;11.60;;;;;;;7.67;98.31;99302.27;107560;1254;97866;-62
2023/11/12 03:42:43;;;;;;;18.90;12.00;;;;;;;7.64;98.38;99309.20;107529;1254;97845;-62
2023/11/12 03:45:12;;;;;;;20.10;12.00;;;;;;;7.62;98.28;99308.84;107611;1254;110819;-63
2023/11/12 03:47:41;;;;;;;19.20;12.00;;;;;;;7.62;98.29;99308.84;107557;1251;108913;-61
2023/11/12 03:50:10;;;;;;;18.50;10.70;;;;;;;7.59;97.98;99315.21;107454;1254;108269;-62
2023/11/12 03:52:39;;;;;;;19.10;10.80;;;;;;;7.55;98.11;99323.69;107535;1251;97935;-61
2023/11/12 03:55:08;;;;;;;17.00;10.40;;;;;;;7.51;98.45;99320.59;107506;1251;97736;-61
2023/11/12 03:57:37;;;;;;;18.80;10.60;;;;;;;7.50;99.17;99324.66;107522;1251;110779;-62
2023/11/12 04:00:07;;;;;;;22.50;11.30;;;;;;;7.53;99.65;99322.95;107615;1251;108582;-62
2023/11/12 04:02:40;;;;;;;18.00;9.50;;;;;;;7.55;100.00;99323.10;107594;1253;107800;-62
2023/11/12 04:05:09;;;;;;;16.90;10.00;;;;;;;7.60;99.99;99322.10;107679;1256;97836;-63
2023/11/12 04:07:37;;;;;;;18.30;10.10;;;;;;;7.64;100.00;99324.54;107574;1251;97844;-63
2023/11/12 04:10:06;;;;;;;19.30;10.60;;;;;;;7.67;99.93;99327.29;107640;1255;111550;-62
2023/11/12 04:12:35;;;;;;;17.30;10.20;;;;;;;7.66;99.93;99336.69;107661;1254;109277;-61
2023/11/12 04:15:04;;;;;;;17.20;9.10;;;;;;;7.61;99.97;99336.61;107485;1251;107919;-62
2023/11/12 04:17:32;;;;;;;20.80;9.10;;;;;;;7.57;100.00;99338.44;107505;1251;97731;-61
2023/11/12 04:20:01;;;;;;;16.00;9.40;;;;;;;7.53;100.00;99341.70;107596;1253;98444;-62
2023/11/12 04:22:29;;;;;;;14.20;8.70;;;;;;;7.49;100.00;99348.27;107610;1251;111358;-63
2023/11/12 04:24:58;;;;;;;14.50;8.60;;;;;;;7.47;100.00;99348.01;107641;1255;110869;-61
2023/11/12 04:27:26;;;;;;;12.70;7.40;;;;;;;7.44;100.00;99355.80;107673;1251;106699;-62
2023/11/12 04:29:55;;;;;;;12.60;7.80;;;;;;;7.43;100.00;99357.86;107697;1249;97829;-62
2023/11/12 04:32:23;;;;;;;12.50;8.40;;;;;;;7.41;100.00;99362.15;107536;1251;97809;-61
2023/11/12 04:34:52;;;;;;;14.00;8.10;;;;;;;7.41;100.00;99359.98;107687;1253;111970;-61
2023/11/12 04:37:20;;;;;;;13.70;8.00;;;;;;;7.43;100.00;99363.55;107624;1251;109153;-61
2023/11/12 04:39:49;;;;;;;16.70;9.00;;;;;;;7.44;100.00;99366.81;107426;1251;108358;-61
2023/11/12 04:42:18;;;;;;;12.10;7.90;;;;;;;7.44;100.00;99371.83;107612;1256;97897;-61
2023/11/12 04:44:46;;;;;;;18.10;8.60;;;;;;;7.40;100.00;99371.51;107608;1251;97924;-60
2023/11/12 04:47:14;;;;;;;12.60;7.60;;;;;;;7.38;100.00;99376.51;107551;1253;111834;-62
2023/11/12 04:49:43;;;;;;;15.80;8.30;;;;;;;7.37;100.00;99374.86;107623;1253;109266;-61
2023/11/12 04:52:12;;;;;;;16.30;8.50;;;;;;;7.40;100.00;99378.63;107626;1251;108491;-62
2023/11/12 04:54:40;;;;;;;11.00;7.60;;;;;;;7.43;100.00;99381.41;107644;1251;98323;-61
2023/11/12 04:57:08;;;;;;;15.20;8.30;;;;;;;7.41;100.00;99382.06;107651;1251;97761;-62
2023/11/12 04:59:40;;;;;;;12.40;7.80;;;;;;;7.42;100.00;99383.30;107589;1251;112031;-60
2023/11/12 05:02:12;;;;;;;18.00;8.50;;;;;;;7.41;100.00;99388.91;107609;1251;109623;-61
2023/11/12 05:04:41;;;;;;;18.40;9.40;;;;;;;7.41;100.00;99392.45;107522;1251;108426;-61
2023/11/12 05:07:10;;;;;;;17.00;8.00;;;;;;;7.41;100.00;99395.10;107628;1251;97928;-62
2023/11/12 05:09:38;;;;;;;11.20;7.80;;;;;;;7.43;100.00;99396.01;107663;1251;97756;-62
2023/11/12 05:12:09;;;;;;;12.30;7.60;;;;;;;7.44;100.00;99400.90;107588;1256;111886;-62
2023/11/12 05:14:37;;;;;;;13.40;8.50;;;;;;;7.44;100.00;99408.73;107622;1256;108254;-62
2023/11/12 05:17:06;;;;;;;14.00;8.80;;;;;;;7.46;100.00;99411.72;107692;1251;108268;-61
2023/11/12 05:19:34;;;;;;;12.40;8.60;;;;;;;7.49;100.00;99417.36;107603;1251;97995;-62
2023/11/12 05:22:03;;;;;;;15.10;9.10;;;;;;;7.49;100.00;99423.72;107600;1251;97761;-61
2023/11/12 05:24:35;;;;;;;13.00;9.00;;;;;;;7.49;100.00;99426.67;107676;1251;111827;-61
2023/11/12 05:27:04;;;;;;;20.50;9.70;;;;;;;7.48;100.00;99428.80;107622;1251;108023;-61
2023/11/12 05:29:33;;;;;;;13.50;9.70;;;;;;;7.48;100.00;99435.80;107597;1256;108671;-60
2023/11/12 05:32:01;;;;;;;13.40;8.80;;;;;;;7.50;100.00;99436.98;107535;1254;97844;-60
2023/11/12 05:34:29;;;;;;;12.30;8.60;;;;;;;7.50;100.00;99443.61;107622;1253;97711;-60
2023/11/12 05:36:58;;;;;;;12.90;8.50;;;;;;;7.46;100.00;99440.52;107630;1251;112191;-60
2023/11/12 05:39:26;;;;;;;11.90;7.00;;;;;;;7.46;100.00;99450.43;107645;1251;108929;-62
2023/11/12 05:41:55;;;;;;;11.50;6.70;;;;;;;7.43;100.00;99455.93;107606;1256;108484;-62
2023/11/12 05:44:23;;;;;;;11.00;6.20;;;;;;;7.38;100.00;99463.19;107590;1252;97826;-62
2023/11/12 05:46:51;;;;;;;10.00;5.30;;;;;;;7.35;100.00;99466.70;107552;1253;98520;-62
2023/11/12 05:49:21;;;;;;;16.90;9.80;;;;;;;7.33;100.00;99469.52;107440;1253;111752;-61
2023/11/12 05:51:49;;;;;;;10.00;6.20;;;;;;;7.32;100.00;99473.55;107428;1251;109328;-61
2023/11/12 05:54:17;;;;;;;7.40;5.20;;;;;;;7.32;100.00;99477.29;107509;1250;108248;-63
2023/11/12 05:56:46;;;;;;;7.60;5.00;;;;;;;7.32;100.00;99480.89;107564;1251;98490;-61
2023/11/12 05:59:14;;;;;;;10.40;7.30;;;;;;;7.32;100.00;99482.78;107583;1251;97980;-62
2023/11/12 06:01:42;;;;;;;8.60;5.50;;;;;;;7.30;100.00;99493.36;107578;1253;110781;-59
2023/11/12 06:04:11;;;;;;;7.50;5.30;;;;;;;7.28;100.00;99495.52;107574;1251;109612;-61
2023/11/12 06:06:39;;;;;;;8.30;6.00;;;;;;;7.29;100.00;99504.41;107473;1251;108418;-61
2023/11/12 06:09:08;;;;;;;11.60;6.80;;;;;;;7.28;100.00;99509.46;107668;1251;97823;-61
2023/11/12 06:11:38;;;;;;;8.70;6.30;;;;;;;7.29;100.00;99514.67;107618;1251;97779;-62
2023/11/12 06:14:06;;;;;;;8.70;5.50;;;;;;;7.30;100.00;99521.60;107530;1251;112106;-61
2023/11/12 06:16:35;;;;;;;7.30;5.40;;;;;;;7.31;100.00;99526.43;107606;1251;109697;-62
2023/11/12 06:19:03;;;;;;;8.50;5.70;;;;;;;7.32;100.00;99531.87;107598;1251;107825;-61
2023/11/12 06:21:32;;;;;;;8.40;5.80;;;;;;;7.36;100.00;99539.55;107608;1251;98469;-61
2023/11/12 06:24:00;;;;;;;4.90;3.40;;;;;;;7.42;100.00;99547.72;107640;1251;97735;-63
2023/11/12 06:26:28;;;;;;;4.80;2.90;;;;;;;7.42;100.00;99553.58;107635;1255;112844;-62
2023/11/12 06:28:56;;;;;;;7.70;2.50;;;;;;;7.36;100.00;99555.97;107514;1255;109108;-62
2023/11/12 06:31:25;;;;;;;6.90;2.80;;;;;;;7.28;100.00;99564.70;107635;1250;109411;-62
2023/11/12 06:33:53;;;;;;;8.10;3.00;;;;;;;7.21;100.00;99565.04;107618;1251;97825;-61
2023/11/12 06:36:22;;;;;;;3.40;2.50;;;;;;;7.16;100.00;99576.04;107588;1250;97815;-61
2023/11/12 06:38:50;;;;;;;6.80;2.90;;;;;;;7.17;100.00;99574.42;107644;1251;111411;-62
2023/11/12 06:41:23;;;;;;;3.20;2.30;;;;;;;7.19;100.00;99583.05;107599;1250;110178;-61
2023/11/12 06:43:51;;;;;;;4.30;3.10;;;;;;;7.18;100.00;99586.35;107570;1253;107272;-62
2023/11/12 06:46:19;;;;;;;5.70;4.30;;;;;;;7.14;100.00;99589.34;107576;1251;97846;-62
2023/11/12 06:48:47;;;;;;;5.40;3.10;;;;;;;7.10;99.87;99598.65;107584;1251;97832;-62
2023/11/12 06:51:24;;;;;;;11.30;7.40;;;;;;;7.06;99.86;99601.00;107660;1251;111805;-61
2023/11/12 06:53:52;;;;;;;3.50;2.50;;;;;;;7.04;99.62;99608.11;107684;1251;108579;-62
2023/11/12 06:56:20;;;;;;;4.80;2.80;;;;;;;7.01;98.73;99615.91;107563;1253;106835;-61
2023/11/12 06:58:49;;;;;;;2.90;1.80;;;;;;;6.99;98.33;99619.45;107607;1251;97845;-62
2023/11/12 07:01:17;;;;;;;4.30;2.10;;;;;;;6.96;97.89;99624.75;107502;1253;97851;-61
2023/11/12 07:03:45;;;;;;;2.90;1.50;;;;;;;6.93;97.49;99629.88;107596;1251;112035;-63
2023/11/12 07:06:14;;;;;;;3.40;1.60;;;;;;;6.93;96.99;99629.84;107616;1251;109793;-62
2023/11/12 07:08:42;;;;;;;1.30;1.00;;;;;;;6.90;96.68;99631.50;107581;1253;108466;-62
2023/11/12 07:11:10;;;;;;;4.80;1.80;;;;;;;6.90;96.55;99634.19;107647;1253;97908;-62
2023/11/12 07:13:39;;;;;;;1.50;1.00;;;;;;;6.87;96.24;99640.69;107626;1253;98348;-62
2023/11/12 07:16:16;;;;;;;2.00;1.20;;;;;;;6.79;95.20;99647.28;107617;1252;110565;-61
2023/11/12 07:18:44;;;;;;;1.70;1.20;;;;;;;6.79;95.82;99652.80;107637;1251;109249;-61
2023/11/12 07:21:28;;;;;;;2.50;1.70;;;;;;;6.83;95.81;99656.94;107555;1253;108330;-61
2023/11/12 07:23:58;;;;;;;2.90;1.60;;;;;;;6.83;95.73;99665.44;107590;1251;97843;-62
2023/11/12 07:26:27;;;;;;;3.20;1.60;;;;;;;6.81;95.55;99670.30;107618;1251;97854;-61
2023/11/12 07:28:55;;;;;;;8.40;2.10;;;;;;;6.78;95.90;99674.07;107610;1251;111420;-62
2023/11/12 07:31:23;;;;;;;3.30;1.90;;;;;;;6.82;96.41;99681.09;107506;1251;109509;-61
2023/11/12 07:33:52;;;;;;;5.50;2.30;;;;;;;6.82;95.99;99682.31;107477;1253;107752;-62
2023/11/12 07:36:21;;;;;;;2.60;1.70;;;;;;;6.79;95.93;99688.67;107479;1251;97834;-62
2023/11/12 07:38:50;;;;;;;3.60;2.30;;;;;;;6.77;95.88;99687.60;107432;1250;97849;-61
2023/11/12 07:41:19;;;;;;;5.40;2.80;;;;;;;6.78;96.22;99697.45;107471;1251;110841;-61
2023/11/12 07:43:48;;;;;;;4.30;2.90;;;;;;;6.78;96.27;99703.67;107479;1250;109888;-61
2023/11/12 07:46:17;;;;;;;6.30;3.00;;;;;;;6.78;96.26;99701.23;107477;1253;107314;-62
2023/11/12 07:48:46;;;;;;;4.60;2.80;;;;;;;6.80;96.19;99706.20;107511;1251;97809;-60
2023/11/12 07:51:15;;;;;;;9.10;4.20;;;;;;;6.80;95.91;99712.23;107470;1251;98349;-61
2023/11/12 07:53:43;;;;;;;5.40;3.70;;;;;;;6.83;96.07;99716.42;107516;1254;112370;-61
2023/11/12 07:56:12;;;;;;;5.50;3.00;;;;;;;6.81;95.62;99721.77;107505;1250;110027;-61
2023/11/12 07:58:40;;;;;;;4.50;3.10;;;;;;;6.77;95.33;99724.60;107472;1254;107944;-61
2023/11/12 08:01:11;;;;;;;6.80;2.90;;;;;;;6.75;95.06;99731.37;107359;1251;97828;-61
2023/11/12 08:03:40;;;;;;;3.50;2.20;;;;;;;6.71;94.77;99737.30;107446;1254;97847;-62
2023/11/12 08:06:09;;;;;;;4.50;2.30;;;;;;;6.71;94.97;99742.48;107492;1251;112225;-62
2023/11/12 08:08:38;;;;;;;2.60;2.00;;;;;;;6.74;95.26;99742.56;107461;1254;110768;-61
2023/11/12 08:11:06;;;;;;;3.90;2.00;;;;;;;6.74;94.73;99746.63;107458;1254;106863;-61
2023/11/12 08:13:35;;;;;;;5.60;2.30;;;;;;;6.77;94.59;99752.27;107400;1251;97811;-62
2023/11/12 08:16:04;;;;;;;2.40;1.80;;;;;;;6.76;94.05;99759.97;107413;1251;98013;-62
2023/11/12 08:18:32;;;;;;;2.40;1.50;;;;;;;6.76;93.89;99764.48;107480;1254;110186;-62
2023/11/12 08:21:01;;;;;;;4.40;1.90;;;;;;;6.76;94.09;99772.64;107590;1251;109730;-64
2023/11/12 08:23:29;;;;;;;2.60;1.30;;;;;;;6.80;94.25;99774.77;107563;1254;108392;-61
2023/11/12 08:25:59;;;;;;;2.60;1.70;;;;;;;6.84;93.82;99779.10;107532;1251;97848;-61
2023/11/12 08:28:32;;;;;;;3.50;1.90;;;;;;;6.83;93.81;99782.15;107555;1251;97753;-61
2023/11/12 08:31:00;;;;;;;3.70;1.80;;;;;;;6.86;93.90;99784.92;107577;1250;111224;-62
2023/11/12 08:33:29;;;;;;;3.60;2.40;;;;;;;6.83;93.43;99789.29;107522;1251;109533;-66
2023/11/12 08:35:57;;;;;;;3.50;2.10;;;;;;;6.88;93.65;99793.66;107545;1250;107843;-62
2023/11/12 08:38:26;;;;;;;4.20;1.90;;;;;;;6.95;93.61;99795.57;107545;1251;97869;-62
2023/11/12 08:40:54;;;;;;;3.00;1.80;;;;;;;6.97;93.48;99801.31;107470;1251;98360;-61
2023/11/12 08:43:24;;;;;;;5.00;1.90;;;;;;;6.95;93.30;99807.16;107498;1251;111970;-62
2023/11/12 08:45:52;;;;;;;6.10;2.50;;;;;;;6.96;93.34;99811.05;107559;1251;109951;-61
2023/11/12 08:48:21;;;;;;;2.80;1.80;;;;;;;6.99;93.52;99817.73;107490;1254;108832;-62
2023/11/12 08:50:50;;;;;;;3.70;2.10;;;;;;;7.01;93.49;99823.23;107509;1251;97838;-62
2023/11/12 08:53:19;;;;;;;2.70;1.80;;;;;;;7.05;94.33;99825.34;107568;1251;98357;-63
2023/11/12 08:55:48;;;;;;;3.30;2.00;;;;;;;7.13;94.67;99833.89;107550;1251;111119;-63
2023/11/12 08:58:16;;;;;;;4.10;2.10;;;;;;;7.21;94.11;99836.06;107638;1251;109272;-63
2023/11/12 09:00:44;;;;;;;6.80;2.20;;;;;;;7.26;93.80;99838.48;107601;1251;106464;-62
2023/11/12 09:03:12;;;;;;;3.80;1.80;;;;;;;7.30;93.83;99839.75;107658;1251;97833;-62
2023/11/12 09:05:41;;;;;;;4.70;3.10;;;;;;;7.34;94.07;99839.73;107627;1251;97748;-62
2023/11/12 09:08:10;;;;;;;4.90;2.70;;;;;;;7.35;94.14;99844.80;107528;1253;110702;-62
2023/11/12 09:10:40;;;;;;;4.50;2.70;;;;;;;7.40;94.01;99846.34;107592;1251;109561;-63
2023/11/12 09:13:09;;;;;;;6.90;2.20;;;;;;;7.40;93.76;99848.51;107583;1251;108273;-62
2023/11/12 09:15:37;;;;;;;2.60;1.80;;;;;;;7.38;93.39;99851.19;107611;1251;97858;-63
2023/11/12 09:18:06;;;;;;;10.20;2.00;;;;;;;7.41;92.96;99855.32;107631;1251;97742;-61
2023/11/12 09:20:34;;;;;;;3.90;1.90;;;;;;;7.39;92.69;99861.37;107650;1251;110817;-64
2023/11/12 09:23:03;;;;;;;5.20;2.10;;;;;;;7.42;92.79;99862.42;107583;1251;109698;-61
2023/11/12 09:25:31;;;;;;;2.30;1.40;;;;;;;7.49;92.85;99864.46;107474;1253;109528;-61
2023/11/12 09:28:02;;;;;;;4.10;2.50;;;;;;;7.51;92.33;99870.66;108525;1252;95940;-61
2023/11/12 09:30:33;;;;;;;3.30;1.50;;;;;;;7.52;92.10;99870.55;107874;1250;97848;-61
2023/11/12 09:33:22;;;;;;;16.20;11.30;;;;;;;7.57;91.60;99876.02;107471;1250;112456;-61
2023/11/12 09:35:50;;;;;;;4.80;2.00;;;;;;;7.62;91.37;99877.19;107560;1253;110447;-61
2023/11/12 09:38:19;;;;;;;3.10;1.80;;;;;;;7.67;91.09;99879.61;107549;1251;107375;-62
2023/11/12 09:40:48;;;;;;;17.60;11.30;;;;;;;7.73;90.63;99884.93;107510;1251;98023;-63
2023/11/12 09:43:17;;;;;;;2.90;1.90;;;;;;;7.78;89.85;99885.73;107600;1251;97709;-63
2023/11/12 09:45:50;;;;;;;4.90;1.70;;;;;;;7.87;90.00;99891.50;107694;1250;111853;-62
2023/11/12 09:48:35;;;;;;;4.00;1.70;;;;;;;7.98;89.34;99898.95;107672;1253;109816;-62
2023/11/12 09:51:05;;;;;;;2.10;1.60;;;;;;;8.06;88.93;99905.34;107628;1254;108689;-62
2023/11/12 09:53:41;;;;;;;3.80;2.00;;;;;;;8.13;87.14;99910.95;107540;1251;97840;-62
2023/11/12 09:56:09;;;;;;;2.40;1.70;;;;;;;8.17;87.00;99914.19;107596;1252;97815;-61
2023/11/12 09:58:45;;;;;;;5.10;1.30;;;;;;;8.20;87.22;99917.16;107593;1250;111046;-62
2023/11/12 10:01:14;;;;;;;2.30;1.50;;;;;;;8.21;86.18;99920.39;107553;1251;109990;-62
2023/11/12 10:03:47;;;;;;;4.90;2.70;;;;;;;8.20;86.55;99922.31;107652;1251;108031;-62
2023/11/12 10:06:20;;;;;;;4.00;1.60;;;;;;;8.19;85.88;99928.63;107584;1250;98016;-62
2023/11/12 10:08:50;;;;;;;3.20;2.20;;;;;;;8.23;84.90;99929.90;107685;1250;97894;-63
2023/11/12 10:11:20;;;;;;;4.00;1.60;;;;;;;8.23;85.55;99932.58;107617;1250;111794;-62
2023/11/12 10:13:52;;;;;;;6.30;1.70;;;;;;;8.23;85.60;99937.34;107143;1254;580288;-62
2023/11/12 10:16:25;;;;;;;1.90;1.50;;;;;;;8.25;84.99;99946.45;107617;1251;109404;-62
2023/11/12 10:19:05;;;;;;;3.60;1.40;;;;;;;8.23;84.65;99942.59;107673;1251;97863;-62
2023/11/12 10:21:34;;;;;;;2.10;1.60;;;;;;;8.25;84.46;99950.03;107611;1251;97708;-62
2023/11/12 10:24:04;;;;;;;2.70;1.30;;;;;;;8.25;84.00;99950.94;107600;1250;112103;-62
2023/11/12 10:26:36;;;;;;;1.90;1.50;;;;;;;8.25;83.62;99959.17;107629;1250;110428;-62
2023/11/12 10:29:05;;;;;;;4.20;1.40;;;;;;;8.25;84.21;99965.17;107635;1249;108612;-62
2023/11/12 10:31:38;;;;;;;5.10;3.10;;;;;;;8.30;84.44;99967.84;107589;1252;97720;-62
2023/11/12 10:34:08;;;;;;;4.10;2.80;;;;;;;8.38;84.55;99972.30;107627;1252;97817;-63
2023/11/12 10:36:36;;;;;;;2.70;1.60;;;;;;;8.42;84.21;99981.88;107646;1253;111774;-61
2023/11/12 10:39:09;;;;;;;4.00;1.80;;;;;;;8.48;83.63;99982.42;107470;1251;108951;-62
2023/11/12 10:41:39;;;;;;;3.20;1.60;;;;;;;8.53;83.41;99981.15;107567;1251;108285;-63
2023/11/12 10:44:12;;;;;;;1.70;1.40;;;;;;;8.51;82.70;99985.73;107639;1250;97851;-62
2023/11/12 10:46:49;;;;;;;2.50;1.40;;;;;;;8.53;83.16;99991.48;107576;1251;97934;-62
2023/11/12 10:49:20;;;;;;;3.10;1.50;;;;;;;8.50;82.29;99993.36;107633;1250;111271;-61
2023/11/12 10:51:49;;;;;;;2.30;1.30;;;;;;;8.46;82.17;99995.31;107539;1251;110566;-62
2023/11/12 10:54:20;;;;;;;2.30;1.30;;;;;;;8.45;81.91;100000.36;107630;1251;107880;-61
2023/11/12 10:56:51;;;;;;;1.20;1.10;;;;;;;8.42;81.57;100008.99;107673;1251;97928;-62
2023/11/12 10:59:21;;;;;;;1.50;1.10;;;;;;;8.35;80.92;100009.84;107676;1252;97873;-62
2023/11/12 11:01:51;;;;;;;7.00;4.00;;;;;;;8.33;81.53;100014.52;107624;1253;110225;-62
2023/11/12 11:04:21;;;;;;;6.00;3.80;;;;;;;8.35;81.70;100019.48;107636;1251;109811;-63
2023/11/12 11:06:49;;;;;;;7.30;4.10;;;;;;;8.38;82.18;100022.31;107584;1253;108403;-63
2023/11/12 11:09:20;;;;;;;4.00;2.40;;;;;;;8.42;82.12;100028.91;107572;1252;97870;-63
2023/11/12 11:11:49;;;;;;;1.80;1.40;;;;;;;8.39;81.48;100033.48;107633;1249;98407;-63
2023/11/12 11:14:21;;;;;;;4.40;2.30;;;;;;;8.38;81.61;100032.32;107635;1251;111302;-62
2023/11/12 11:16:52;;;;;;;3.60;2.30;;;;;;;8.38;81.76;100038.70;107586;1250;109283;-62
2023/11/12 11:19:43;;;;;;;4.40;2.50;;;;;;;8.43;82.13;100046.34;107616;1250;107598;-62
2023/11/12 11:22:21;;;;;;;4.10;2.20;;;;;;;8.48;82.40;100048.96;107590;1253;97714;-62
2023/11/12 11:24:49;;;;;;;4.90;1.40;;;;;;;8.54;82.26;100057.52;107531;1251;98395;-62
2023/11/12 11:27:21;;;;;;;3.40;1.90;;;;;;;8.58;81.90;100058.04;107628;1252;111907;-62
2023/11/12 11:30:13;;;;;;;3.30;2.00;;;;;;;8.65;82.09;100064.42;107657;1252;108692;-62